createdAt,value
2018-06-20T00:00:09.800Z,3.53
2018-06-20T00:02:40.032Z,3.77
2018-06-20T00:05:07.995Z,4.10
2018-06-20T00:07:35.930Z,4.60
2018-06-20T00:10:04.982Z,3.97
2018-06-20T00:12:33.257Z,3.10
2018-06-20T00:15:02.404Z,4.33
2018-06-20T00:17:30.563Z,4.27
2018-06-20T00:19:58.507Z,4.40
2018-06-20T00:22:27.111Z,3.90
2018-06-20T00:24:55.412Z,3.80
2018-06-20T00:27:23.507Z,4.10
2018-06-20T00:29:52.793Z,5.00
2018-06-20T00:32:21.166Z,3.93
2018-06-20T00:34:49.520Z,4.30
2018-06-20T00:37:18.098Z,4.20
2018-06-20T00:39:46.020Z,4.37
2018-06-20T00:42:13.968Z,4.80
2018-06-20T00:44:42.203Z,4.63
2018-06-20T00:47:10.312Z,4.53
2018-06-20T00:49:38.972Z,4.77
2018-06-20T00:52:08.737Z,4.67
2018-06-20T00:54:36.549Z,3.93
2018-06-20T00:57:05.778Z,4.30
2018-06-20T00:59:34.469Z,4.50
2018-06-20T01:02:02.679Z,4.70
2018-06-20T01:04:30.864Z,4.37
2018-06-20T01:06:59.033Z,4.33
2018-06-20T01:09:27.324Z,4.80
2018-06-20T01:11:55.215Z,5.50
2018-06-20T01:14:23.178Z,5.37
2018-06-20T01:16:52.030Z,4.13
2018-06-20T01:19:20.910Z,4.70
2018-06-20T01:21:49.032Z,5.13
2018-06-20T01:24:17.783Z,5.13
2018-06-20T01:26:45.704Z,4.30
2018-06-20T01:29:14.203Z,4.70
2018-06-20T01:31:42.563Z,4.83
2018-06-20T01:34:10.503Z,4.57
2018-06-20T01:36:51.279Z,5.50
2018-06-20T01:39:19.796Z,5.20
2018-06-20T01:41:49.513Z,5.50
2018-06-20T01:44:18.339Z,5.40
2018-06-20T01:46:46.503Z,5.20
2018-06-20T01:49:14.666Z,5.30
2018-06-20T01:51:42.704Z,4.63
2018-06-20T01:54:10.775Z,5.70
2018-06-20T01:56:39.339Z,5.20
2018-06-20T01:59:07.252Z,4.80
2018-06-20T02:01:35.585Z,5.87
2018-06-20T02:04:03.702Z,5.00
2018-06-20T02:06:31.749Z,7.20
2018-06-20T02:09:07.565Z,5.63
2018-06-20T02:11:40.023Z,4.60
2018-06-20T02:14:08.816Z,5.80
2018-06-20T02:16:37.456Z,5.63
2018-06-20T02:19:05.471Z,5.73
2018-06-20T02:21:34.521Z,6.30
2018-06-20T02:24:03.518Z,6.03
2018-06-20T02:26:32.026Z,4.70
2018-06-20T02:29:00.373Z,6.97
2018-06-20T02:31:28.386Z,5.03
2018-06-20T02:33:56.420Z,5.50
2018-06-20T02:36:31.522Z,5.13
2018-06-20T02:39:00.804Z,5.80
2018-06-20T02:41:29.138Z,6.00
2018-06-20T02:43:57.917Z,5.67
2018-06-20T02:46:26.712Z,5.00
2018-06-20T02:48:55.808Z,4.70
2018-06-20T02:51:24.758Z,5.67
2018-06-20T02:53:54.490Z,5.60
2018-06-20T02:56:22.593Z,5.30
2018-06-20T02:58:50.861Z,5.00
2018-06-20T03:01:20.106Z,4.20
2018-06-20T03:03:48.203Z,4.83
2018-06-20T03:06:19.021Z,5.03
2018-06-20T03:08:51.611Z,5.43
2018-06-20T03:11:20.649Z,5.70
2018-06-20T03:13:49.160Z,5.40
2018-06-20T03:16:19.578Z,4.80
2018-06-20T03:18:49.524Z,5.47
2018-06-20T03:21:23.564Z,5.90
2018-06-20T03:23:52.011Z,5.00
2018-06-20T03:26:21.848Z,5.63
2018-06-20T03:28:51.903Z,5.57
2018-06-20T03:31:20.210Z,5.27
2018-06-20T03:33:48.993Z,5.80
2018-06-20T03:36:17.455Z,4.90
2018-06-20T03:38:45.545Z,5.43
2018-06-20T03:41:14.183Z,5.40
2018-06-20T03:43:43.664Z,5.67
2018-06-20T03:46:12.651Z,5.67
2018-06-20T03:48:43.843Z,5.53
2018-06-20T03:51:12.259Z,4.77
2018-06-20T03:53:40.493Z,6.00
2018-06-20T03:56:08.409Z,6.57
2018-06-20T03:58:36.630Z,5.67
2018-06-20T04:01:06.238Z,5.80
2018-06-20T04:03:34.423Z,6.23
2018-06-20T04:06:02.335Z,6.17
2018-06-20T04:08:30.300Z,5.60
2018-06-20T04:10:58.424Z,5.27
2018-06-20T04:13:30.944Z,5.80
2018-06-20T04:16:01.754Z,5.20
2018-06-20T04:18:40.592Z,7.17
2018-06-20T04:21:11.929Z,5.93
2018-06-20T04:23:40.186Z,6.23
2018-06-20T04:26:09.277Z,6.70
2018-06-20T04:28:41.907Z,6.13
2018-06-20T04:31:11.267Z,7.13
2018-06-20T04:33:40.916Z,6.70
2018-06-20T04:36:10.108Z,6.87
2018-06-20T04:38:40.033Z,7.03
2018-06-20T04:41:08.879Z,7.40
2018-06-20T04:43:40.625Z,6.17
2018-06-20T04:46:12.093Z,6.40
2018-06-20T04:48:48.098Z,6.50
2018-06-20T04:51:19.315Z,6.10
2018-06-20T04:53:48.978Z,7.07
2018-06-20T04:56:25.123Z,7.60
2018-06-20T04:59:02.285Z,7.60
2018-06-20T05:04:20.270Z,7.07
2018-06-20T05:06:55.450Z,5.40
2018-06-20T05:09:27.201Z,6.57
2018-06-20T05:12:04.000Z,6.07
2018-06-20T05:14:33.604Z,4.90
2018-06-20T05:17:09.818Z,5.50
2018-06-20T05:19:47.422Z,5.10
2018-06-20T05:22:27.646Z,4.33
2018-06-20T05:25:00.798Z,5.10
2018-06-20T05:27:31.902Z,5.10
2018-06-20T05:30:03.653Z,5.00
2018-06-20T05:38:00.810Z,4.13
2018-06-20T05:40:46.880Z,2.90
2018-06-20T05:43:20.659Z,3.70
2018-06-20T05:46:02.986Z,4.20
2018-06-20T05:51:26.687Z,3.87
2018-06-20T05:56:52.697Z,4.10
2018-06-20T05:59:39.230Z,4.30
2018-06-20T06:02:07.409Z,3.47
2018-06-20T06:04:36.121Z,3.40
2018-06-20T06:07:05.313Z,5.53
2018-06-20T06:09:36.683Z,3.70
2018-06-20T06:12:05.254Z,4.27
2018-06-20T06:14:33.355Z,3.97
2018-06-20T06:17:02.311Z,4.67
2018-06-20T06:19:40.611Z,4.27
2018-06-20T06:22:26.204Z,3.97
2018-06-20T06:25:02.193Z,4.10
2018-06-20T06:27:44.854Z,4.13
2018-06-20T06:31:07.916Z,3.77
2018-06-20T06:36:31.040Z,4.07
2018-06-20T06:39:11.087Z,4.53
2018-06-20T06:41:52.125Z,4.00
2018-06-20T06:47:31.063Z,4.10
2018-06-20T06:50:24.223Z,4.30
2018-06-20T06:53:03.680Z,4.80
2018-06-20T06:55:46.738Z,5.20
2018-06-20T06:58:39.747Z,4.73
2018-06-20T07:06:49.615Z,5.17
2018-06-20T07:09:19.165Z,4.77
2018-06-20T07:11:48.397Z,4.97
2018-06-20T07:17:11.835Z,5.77
2018-06-20T07:22:40.180Z,5.70
2018-06-20T07:25:24.280Z,5.27
2018-06-20T07:30:42.785Z,5.27
2018-06-20T07:33:10.830Z,5.53
2018-06-20T07:35:42.870Z,5.80
2018-06-20T07:38:29.916Z,4.97
2018-06-20T07:47:07.850Z,5.33
2018-06-20T07:49:47.707Z,5.20
2018-06-20T08:01:06.671Z,5.33
2018-06-20T08:03:44.501Z,5.30
2018-06-20T08:06:24.353Z,5.67
2018-06-20T08:09:00.455Z,4.93
2018-06-20T08:11:39.966Z,5.33
2018-06-20T08:14:24.269Z,6.23
2018-06-20T08:17:02.981Z,5.73
2018-06-20T08:22:46.370Z,5.10
2018-06-20T08:28:19.488Z,5.00
2018-06-20T08:44:40.340Z,3.77
2018-06-20T08:47:13.308Z,3.00
2018-06-20T08:52:31.284Z,3.77
2018-06-20T08:55:15.412Z,2.47
2018-06-20T08:57:43.474Z,2.83
2018-06-20T09:00:12.748Z,2.73
2018-06-20T09:02:51.779Z,3.57
2018-06-20T09:05:26.351Z,3.30
2018-06-20T09:08:05.252Z,2.60
2018-06-20T09:10:43.965Z,3.10
2018-06-20T09:13:23.593Z,3.27
2018-06-20T09:16:16.651Z,3.23
2018-06-20T09:24:19.710Z,2.47
2018-06-20T09:26:53.763Z,3.27
2018-06-20T09:29:24.375Z,3.03
2018-06-20T11:05:18.243Z,2.10
2018-06-20T11:22:01.646Z,2.80
2018-06-20T11:44:45.029Z,3.60
2018-06-20T12:06:34.971Z,4.50
2018-06-20T12:12:03.507Z,4.00
2018-06-20T16:41:24.053Z,8.77
2018-06-20T16:43:52.866Z,8.93
2018-06-20T16:46:22.682Z,9.07
2018-06-20T16:48:58.264Z,9.90
2018-06-20T16:51:27.440Z,9.00
2018-06-20T16:53:56.024Z,10.00
2018-06-20T16:56:24.891Z,9.87
2018-06-20T16:58:54.739Z,10.37
2018-06-20T17:01:29.354Z,9.93
2018-06-20T17:04:04.134Z,10.63
2018-06-20T17:06:37.964Z,9.47
2018-06-20T17:41:34.234Z,10.00
2018-06-20T18:16:47.113Z,8.57
2018-06-20T18:22:23.740Z,10.20
2018-06-20T18:24:58.467Z,9.90
2018-06-20T18:27:37.747Z,10.17
2018-06-20T18:32:50.486Z,11.33
2018-06-20T18:35:31.293Z,10.57
2018-06-20T18:38:03.410Z,10.63
2018-06-20T18:43:07.096Z,10.23
2018-06-20T18:45:37.198Z,10.30
2018-06-20T18:48:27.502Z,11.23
2018-06-20T18:51:00.916Z,10.67
2018-06-20T18:58:37.982Z,11.57
2018-06-20T19:06:26.487Z,12.00
2018-06-20T19:48:18.958Z,13.25
2018-06-20T19:50:49.385Z,12.90
2018-06-20T19:53:23.849Z,14.00
2018-06-20T19:58:41.895Z,14.57
2018-06-20T20:14:00.784Z,14.80
2018-06-20T20:46:05.685Z,12.75
2018-06-20T20:51:14.024Z,15.27
2018-06-20T20:53:46.555Z,13.70
2018-06-20T20:56:15.797Z,14.77
2018-06-20T20:58:43.625Z,17.27
2018-06-20T21:03:49.072Z,18.37
2018-06-20T21:06:20.238Z,17.17
2018-06-20T21:08:49.157Z,16.67
2018-06-20T21:11:20.437Z,18.93
2018-06-20T21:13:48.468Z,18.10
2018-06-20T21:16:17.255Z,18.30
2018-06-20T21:18:45.240Z,20.60
2018-06-20T21:21:13.351Z,18.30
2018-06-20T21:23:42.471Z,18.80
2018-06-20T21:26:10.524Z,17.50
2018-06-20T21:28:38.380Z,18.33
2018-06-20T21:31:06.515Z,18.47
2018-06-20T21:33:34.378Z,18.53
2018-06-20T21:36:03.284Z,18.87
2018-06-20T21:38:31.208Z,18.30
2018-06-20T21:41:07.005Z,18.90
2018-06-20T21:43:35.179Z,18.97
2018-06-20T21:46:04.462Z,18.63
2018-06-20T21:48:33.266Z,19.83
2018-06-20T21:51:01.118Z,20.57
2018-06-20T21:53:29.157Z,19.70
2018-06-20T21:55:57.216Z,18.60
2018-06-20T21:58:25.205Z,20.07
2018-06-20T22:00:53.314Z,18.90
2018-06-20T22:03:22.835Z,20.43
2018-06-20T22:05:50.846Z,20.13
2018-06-20T22:08:18.962Z,21.20
2018-06-20T22:10:47.133Z,19.90
2018-06-20T22:13:15.324Z,20.20
2018-06-20T22:15:43.319Z,19.30
2018-06-20T22:18:11.517Z,20.37
2018-06-20T22:20:42.453Z,21.93
2018-06-20T22:23:10.431Z,20.13
2018-06-20T22:25:38.448Z,20.10
2018-06-20T22:28:06.286Z,20.37
2018-06-20T22:30:34.173Z,19.47
2018-06-20T22:33:02.540Z,21.80
2018-06-20T22:35:30.741Z,20.97
2018-06-20T22:37:58.849Z,21.77
2018-06-20T22:40:26.893Z,21.10
2018-06-20T22:42:54.760Z,21.23
2018-06-20T22:45:22.520Z,21.43
2018-06-20T22:47:50.752Z,20.30
2018-06-20T22:50:18.606Z,20.70
2018-06-20T22:52:46.542Z,19.60
2018-06-20T22:55:14.485Z,22.30
2018-06-20T22:57:42.645Z,21.93
2018-06-20T23:00:11.229Z,23.13
2018-06-20T23:02:39.061Z,22.30
2018-06-20T23:05:07.136Z,22.23
2018-06-20T23:07:35.248Z,23.40
2018-06-20T23:10:03.355Z,23.97
2018-06-20T23:12:31.276Z,23.30
2018-06-20T23:14:59.326Z,23.90
2018-06-20T23:17:27.343Z,23.33
2018-06-20T23:19:55.277Z,23.27
2018-06-20T23:22:23.312Z,23.70
2018-06-20T23:24:51.308Z,24.67
2018-06-20T23:27:19.360Z,23.30
2018-06-20T23:29:47.166Z,24.00
2018-06-20T23:32:15.214Z,23.60
2018-06-20T23:34:43.046Z,23.30
2018-06-20T23:37:10.922Z,25.37
2018-06-20T23:39:38.712Z,24.20
2018-06-20T23:42:06.578Z,26.53
2018-06-20T23:44:34.346Z,25.27
2018-06-20T23:47:02.360Z,28.60
2018-06-20T23:49:30.284Z,27.23
2018-06-20T23:51:58.174Z,25.60
2018-06-20T23:54:26.146Z,26.40
2018-06-20T23:56:53.989Z,27.90
2018-06-20T23:59:21.935Z,27.80
